sensor_id;sensor_type;location;lat;lon;timestamp;pressure;altitude;pressure_sealevel;temperature;humidity
19783;BME280;10051;40.294;-3.754;2023-01-29T00:00:15;94543.38;;;4.24;51.65
19783;BME280;10051;40.294;-3.754;2023-01-29T00:02:41;94519.19;;;3.87;51.69
19783;BME280;10051;40.294;-3.754;2023-01-29T00:05:07;94562.97;;;4.02;52.17
19783;BME280;10051;40.294;-3.754;2023-01-29T00:07:33;94470.91;;;3.44;51.74
19783;BME280;10051;40.294;-3.754;2023-01-29T00:09:58;94433.28;;;3.23;51.72
19783;BME280;10051;40.294;-3.754;2023-01-29T00:12:24;94446.25;;;3.23;51.78
19783;BME280;10051;40.294;-3.754;2023-01-29T00:14:50;94520.56;;;3.54;52.29
19783;BME280;10051;40.294;-3.754;2023-01-29T00:17:15;94400.63;;;2.49;52.81
19783;BME280;10051;40.294;-3.754;2023-01-29T00:19:41;94419.75;;;2.66;53.10
19783;BME280;10051;40.294;-3.754;2023-01-29T00:22:06;94466.81;;;3.12;52.39
19783;BME280;10051;40.294;-3.754;2023-01-29T00:24:32;94445.00;;;3.02;52.43
19783;BME280;10051;40.294;-3.754;2023-01-29T00:26:57;94491.25;;;3.35;52.65
19783;BME280;10051;40.294;-3.754;2023-01-29T00:29:23;94393.72;;;2.85;52.13
19783;BME280;10051;40.294;-3.754;2023-01-29T00:31:49;94464.47;;;3.35;51.80
19783;BME280;10051;40.294;-3.754;2023-01-29T00:34:14;94457.22;;;3.13;52.13
19783;BME280;10051;40.294;-3.754;2023-01-29T00:36:40;94493.28;;;3.21;52.60
19783;BME280;10051;40.294;-3.754;2023-01-29T00:39:08;94554.59;;;3.53;52.96
19783;BME280;10051;40.294;-3.754;2023-01-29T00:41:36;94560.69;;;3.47;53.07
19783;BME280;10051;40.294;-3.754;2023-01-29T00:44:21;94491.13;;;3.18;52.82
19783;BME280;10051;40.294;-3.754;2023-01-29T00:47:05;94573.72;;;3.82;52.02
19783;BME280;10051;40.294;-3.754;2023-01-29T00:49:51;94486.06;;;3.35;52.28
19783;BME280;10051;40.294;-3.754;2023-01-29T00:52:17;94521.66;;;3.35;52.54
19783;BME280;10051;40.294;-3.754;2023-01-29T00:54:49;94523.91;;;3.19;52.83
19783;BME280;10051;40.294;-3.754;2023-01-29T00:57:14;94478.50;;;2.79;53.60
19783;BME280;10051;40.294;-3.754;2023-01-29T00:59:40;94530.44;;;3.10;53.66
19783;BME280;10051;40.294;-3.754;2023-01-29T01:02:06;94548.50;;;3.05;53.72
19783;BME280;10051;40.294;-3.754;2023-01-29T01:04:50;94535.31;;;3.18;53.62
19783;BME280;10051;40.294;-3.754;2023-01-29T01:07:15;94580.91;;;3.45;53.65
19783;BME280;10051;40.294;-3.754;2023-01-29T01:09:41;94574.78;;;3.39;53.93
19783;BME280;10051;40.294;-3.754;2023-01-29T01:12:26;94576.50;;;3.45;53.51
19783;BME280;10051;40.294;-3.754;2023-01-29T01:14:52;94520.66;;;2.93;53.77
19783;BME280;10051;40.294;-3.754;2023-01-29T01:17:18;94547.28;;;3.07;53.87
19783;BME280;10051;40.294;-3.754;2023-01-29T01:19:43;94514.72;;;2.74;54.45
19783;BME280;10051;40.294;-3.754;2023-01-29T01:22:09;94553.50;;;2.88;55.02
19783;BME280;10051;40.294;-3.754;2023-01-29T01:24:36;94487.66;;;2.51;54.60
19783;BME280;10051;40.294;-3.754;2023-01-29T01:27:01;94566.22;;;3.08;54.77
19783;BME280;10051;40.294;-3.754;2023-01-29T01:29:27;94458.34;;;2.32;55.06
19783;BME280;10051;40.294;-3.754;2023-01-29T01:31:53;94509.75;;;2.73;55.05
19783;BME280;10051;40.294;-3.754;2023-01-29T01:34:18;94561.31;;;3.18;54.81
19783;BME280;10051;40.294;-3.754;2023-01-29T01:36:44;94545.84;;;3.23;54.02
19783;BME280;10051;40.294;-3.754;2023-01-29T01:39:10;94473.66;;;2.83;54.12
19783;BME280;10051;40.294;-3.754;2023-01-29T01:41:35;94575.41;;;3.53;53.08
19783;BME280;10051;40.294;-3.754;2023-01-29T01:44:03;94517.41;;;2.98;54.13
19783;BME280;10051;40.294;-3.754;2023-01-29T01:46:35;94512.56;;;2.71;54.49
19783;BME280;10051;40.294;-3.754;2023-01-29T01:49:13;94520.53;;;2.88;54.05
19783;BME280;10051;40.294;-3.754;2023-01-29T01:51:45;94575.00;;;3.25;54.34
19783;BME280;10051;40.294;-3.754;2023-01-29T01:54:17;94572.19;;;3.39;54.41
19783;BME280;10051;40.294;-3.754;2023-01-29T01:56:51;94395.69;;;2.29;53.69
19783;BME280;10051;40.294;-3.754;2023-01-29T01:59:21;94531.03;;;3.24;53.79
19783;BME280;10051;40.294;-3.754;2023-01-29T02:01:49;94516.91;;;2.89;53.63
19783;BME280;10051;40.294;-3.754;2023-01-29T02:04:18;94517.69;;;2.78;54.64
19783;BME280;10051;40.294;-3.754;2023-01-29T02:07:07;94518.81;;;2.82;54.43
19783;BME280;10051;40.294;-3.754;2023-01-29T02:10:06;94567.97;;;3.26;54.51
19783;BME280;10051;40.294;-3.754;2023-01-29T02:12:33;94542.97;;;3.13;54.32
19783;BME280;10051;40.294;-3.754;2023-01-29T02:14:59;94580.44;;;3.36;54.00
19783;BME280;10051;40.294;-3.754;2023-01-29T02:17:25;94533.91;;;3.04;54.51
19783;BME280;10051;40.294;-3.754;2023-01-29T02:23:13;94510.09;;;2.76;54.71
19783;BME280;10051;40.294;-3.754;2023-01-29T02:28:50;94572.00;;;2.79;56.00
19783;BME280;10051;40.294;-3.754;2023-01-29T02:31:39;94526.91;;;2.43;56.33
19783;BME280;10051;40.294;-3.754;2023-01-29T02:34:19;94484.25;;;2.02;56.71
19783;BME280;10051;40.294;-3.754;2023-01-29T02:37:29;94573.91;;;2.53;57.10
19783;BME280;10051;40.294;-3.754;2023-01-29T02:39:52;94564.44;;;2.78;56.59
19783;BME280;10051;40.294;-3.754;2023-01-29T02:42:33;94521.25;;;2.65;56.37
19783;BME280;10051;40.294;-3.754;2023-01-29T02:45:13;94569.78;;;2.83;56.51
19783;BME280;10051;40.294;-3.754;2023-01-29T02:47:58;94462.53;;;2.15;56.92
19783;BME280;10051;40.294;-3.754;2023-01-29T02:50:40;94525.78;;;2.51;56.73
19783;BME280;10051;40.294;-3.754;2023-01-29T02:53:21;94556.72;;;2.71;56.98
19783;BME280;10051;40.294;-3.754;2023-01-29T02:56:05;94561.84;;;2.78;57.10
19783;BME280;10051;40.294;-3.754;2023-01-29T02:58:36;94576.41;;;2.79;57.66
19783;BME280;10051;40.294;-3.754;2023-01-29T03:01:16;94578.00;;;2.80;57.38
19783;BME280;10051;40.294;-3.754;2023-01-29T03:03:48;94465.84;;;2.03;57.38
19783;BME280;10051;40.294;-3.754;2023-01-29T03:06:34;94562.56;;;2.66;56.80
19783;BME280;10051;40.294;-3.754;2023-01-29T03:09:04;94555.06;;;2.58;57.10
19783;BME280;10051;40.294;-3.754;2023-01-29T03:11:38;94571.66;;;2.76;56.98
19783;BME280;10051;40.294;-3.754;2023-01-29T03:16:43;94570.94;;;2.68;56.99
19783;BME280;10051;40.294;-3.754;2023-01-29T03:19:18;94570.22;;;2.61;56.50
19783;BME280;10051;40.294;-3.754;2023-01-29T03:21:55;94549.38;;;2.49;57.13
19783;BME280;10051;40.294;-3.754;2023-01-29T03:24:49;94568.06;;;2.58;57.01
19783;BME280;10051;40.294;-3.754;2023-01-29T03:30:24;94561.66;;;2.42;56.95
19783;BME280;10051;40.294;-3.754;2023-01-29T03:33:11;94522.44;;;2.13;56.71
19783;BME280;10051;40.294;-3.754;2023-01-29T03:35:46;94533.31;;;2.22;57.83
19783;BME280;10051;40.294;-3.754;2023-01-29T03:38:14;94585.88;;;2.55;57.39
19783;BME280;10051;40.294;-3.754;2023-01-29T03:40:48;94534.69;;;2.25;57.30
19783;BME280;10051;40.294;-3.754;2023-01-29T03:48:30;94570.84;;;2.01;59.89
19783;BME280;10051;40.294;-3.754;2023-01-29T03:54:22;94575.38;;;1.87;59.67
19783;BME280;10051;40.294;-3.754;2023-01-29T03:57:05;94574.91;;;1.71;60.48
19783;BME280;10051;40.294;-3.754;2023-01-29T04:00:22;94573.22;;;1.84;60.79
19783;BME280;10051;40.294;-3.754;2023-01-29T04:03:08;94586.00;;;2.04;60.03
19783;BME280;10051;40.294;-3.754;2023-01-29T04:05:48;94528.63;;;1.50;59.80
19783;BME280;10051;40.294;-3.754;2023-01-29T04:08:21;94539.34;;;1.28;60.48
19783;BME280;10051;40.294;-3.754;2023-01-29T04:10:50;94599.50;;;1.62;60.77
19783;BME280;10051;40.294;-3.754;2023-01-29T04:13:19;94587.59;;;1.80;61.49
19783;BME280;10051;40.294;-3.754;2023-01-29T04:15:51;94500.31;;;1.23;60.86
19783;BME280;10051;40.294;-3.754;2023-01-29T04:18:18;94539.25;;;1.67;60.54
19783;BME280;10051;40.294;-3.754;2023-01-29T04:20:44;94593.97;;;2.02;59.75
19783;BME280;10051;40.294;-3.754;2023-01-29T04:23:23;94556.56;;;1.47;60.17
19783;BME280;10051;40.294;-3.754;2023-01-29T04:29:02;94573.56;;;1.62;60.52
19783;BME280;10051;40.294;-3.754;2023-01-29T04:31:41;94471.66;;;1.17;60.25
19783;BME280;10051;40.294;-3.754;2023-01-29T04:34:17;94577.28;;;1.98;61.25
19783;BME280;10051;40.294;-3.754;2023-01-29T04:39:33;94522.88;;;1.66;60.38
19783;BME280;10051;40.294;-3.754;2023-01-29T04:42:36;94571.78;;;1.88;60.29
19783;BME280;10051;40.294;-3.754;2023-01-29T04:45:17;94524.06;;;1.70;60.06
19783;BME280;10051;40.294;-3.754;2023-01-29T04:53:36;94585.19;;;2.03;59.47
19783;BME280;10051;40.294;-3.754;2023-01-29T04:58:41;94537.28;;;1.37;60.51
19783;BME280;10051;40.294;-3.754;2023-01-29T05:01:12;94522.91;;;1.41;60.13
19783;BME280;10051;40.294;-3.754;2023-01-29T05:03:40;94575.81;;;1.84;60.21
19783;BME280;10051;40.294;-3.754;2023-01-29T05:06:09;94565.78;;;1.87;59.73
19783;BME280;10051;40.294;-3.754;2023-01-29T05:08:37;94507.00;;;1.37;59.37
19783;BME280;10051;40.294;-3.754;2023-01-29T05:11:04;94542.09;;;1.58;59.82
19783;BME280;10051;40.294;-3.754;2023-01-29T05:13:31;94538.50;;;1.59;59.51
19783;BME280;10051;40.294;-3.754;2023-01-29T05:16:15;94572.31;;;1.71;59.58
19783;BME280;10051;40.294;-3.754;2023-01-29T05:18:43;94530.47;;;1.42;59.73
19783;BME280;10051;40.294;-3.754;2023-01-29T05:21:09;94581.50;;;1.67;60.11
19783;BME280;10051;40.294;-3.754;2023-01-29T05:23:35;94527.13;;;1.35;59.61
19783;BME280;10051;40.294;-3.754;2023-01-29T05:26:01;94495.44;;;1.08;59.88
19783;BME280;10051;40.294;-3.754;2023-01-29T05:28:27;94515.84;;;1.29;59.69
19783;BME280;10051;40.294;-3.754;2023-01-29T05:30:55;94602.31;;;1.86;59.72
19783;BME280;10051;40.294;-3.754;2023-01-29T05:33:23;94603.22;;;1.47;60.88
19783;BME280;10051;40.294;-3.754;2023-01-29T05:35:49;94501.16;;;0.52;61.92
19783;BME280;10051;40.294;-3.754;2023-01-29T05:38:16;94532.25;;;0.84;61.51
19783;BME280;10051;40.294;-3.754;2023-01-29T05:40:42;94625.84;;;1.59;61.02
19783;BME280;10051;40.294;-3.754;2023-01-29T05:43:19;94574.63;;;1.29;60.31
19783;BME280;10051;40.294;-3.754;2023-01-29T05:48:17;94630.28;;;1.19;62.22
19783;BME280;10051;40.294;-3.754;2023-01-29T05:50:43;94554.63;;;0.72;62.36
19783;BME280;10051;40.294;-3.754;2023-01-29T05:53:08;94564.53;;;0.82;61.92
19783;BME280;10051;40.294;-3.754;2023-01-29T05:55:34;94627.78;;;1.38;62.23
19783;BME280;10051;40.294;-3.754;2023-01-29T05:58:00;94627.13;;;1.50;61.69
19783;BME280;10051;40.294;-3.754;2023-01-29T06:00:25;94565.59;;;1.06;61.29
19783;BME280;10051;40.294;-3.754;2023-01-29T06:02:51;94522.31;;;0.81;61.15
19783;BME280;10051;40.294;-3.754;2023-01-29T06:05:16;94602.88;;;1.05;61.82
19783;BME280;10051;40.294;-3.754;2023-01-29T06:07:42;94530.50;;;0.33;63.53
19783;BME280;10051;40.294;-3.754;2023-01-29T06:10:15;94629.56;;;1.06;63.45
19783;BME280;10051;40.294;-3.754;2023-01-29T06:12:42;94548.53;;;0.59;62.94
19783;BME280;10051;40.294;-3.754;2023-01-29T06:15:08;94587.97;;;0.94;62.26
19783;BME280;10051;40.294;-3.754;2023-01-29T06:17:35;94628.06;;;1.23;62.53
19783;BME280;10051;40.294;-3.754;2023-01-29T06:20:00;94558.41;;;0.69;62.27
19783;BME280;10051;40.294;-3.754;2023-01-29T06:22:26;94512.16;;;0.41;62.39
19783;BME280;10051;40.294;-3.754;2023-01-29T06:24:52;94555.78;;;0.76;62.15
19783;BME280;10051;40.294;-3.754;2023-01-29T06:27:18;94619.72;;;1.21;62.36
19783;BME280;10051;40.294;-3.754;2023-01-29T06:29:44;94636.31;;;1.45;62.33
19783;BME280;10051;40.294;-3.754;2023-01-29T06:32:10;94641.09;;;1.42;62.03
19783;BME280;10051;40.294;-3.754;2023-01-29T06:34:35;94592.22;;;0.81;62.63
19783;BME280;10051;40.294;-3.754;2023-01-29T06:37:01;94624.31;;;0.67;64.22
19783;BME280;10051;40.294;-3.754;2023-01-29T06:39:27;94573.47;;;0.34;64.70
19783;BME280;10051;40.294;-3.754;2023-01-29T06:41:52;94558.03;;;0.07;65.57
19783;BME280;10051;40.294;-3.754;2023-01-29T06:44:18;94523.47;;;-0.12;65.61
19783;BME280;10051;40.294;-3.754;2023-01-29T06:46:44;94519.28;;;0.00;64.47
19783;BME280;10051;40.294;-3.754;2023-01-29T06:49:09;94582.78;;;0.48;64.02
19783;BME280;10051;40.294;-3.754;2023-01-29T06:51:35;94599.00;;;0.17;64.43
19783;BME280;10051;40.294;-3.754;2023-01-29T06:54:00;94680.91;;;0.56;65.48
19783;BME280;10051;40.294;-3.754;2023-01-29T06:56:26;94669.00;;;0.42;65.84
19783;BME280;10051;40.294;-3.754;2023-01-29T06:58:52;94654.31;;;0.16;66.38
19783;BME280;10051;40.294;-3.754;2023-01-29T07:01:17;94554.53;;;-0.46;66.18
19783;BME280;10051;40.294;-3.754;2023-01-29T07:03:43;94641.94;;;0.24;65.60
19783;BME280;10051;40.294;-3.754;2023-01-29T07:06:09;94672.75;;;0.53;65.08
19783;BME280;10051;40.294;-3.754;2023-01-29T07:08:38;94659.00;;;0.66;64.14
19783;BME280;10051;40.294;-3.754;2023-01-29T07:11:05;94643.50;;;0.52;63.81
19783;BME280;10051;40.294;-3.754;2023-01-29T07:13:31;94708.34;;;0.71;65.18
19783;BME280;10051;40.294;-3.754;2023-01-29T07:16:01;94505.25;;;-0.78;65.21
19783;BME280;10051;40.294;-3.754;2023-01-29T07:18:28;94564.88;;;-0.53;66.79
19783;BME280;10051;40.294;-3.754;2023-01-29T07:20:54;94604.03;;;-0.36;66.28
19783;BME280;10051;40.294;-3.754;2023-01-29T07:23:20;94673.41;;;0.01;66.02
19783;BME280;10051;40.294;-3.754;2023-01-29T07:25:46;94501.88;;;-1.06;66.07
19783;BME280;10051;40.294;-3.754;2023-01-29T07:28:15;94541.78;;;-0.88;66.05
19783;BME280;10051;40.294;-3.754;2023-01-29T07:30:41;94568.84;;;-0.57;66.18
19783;BME280;10051;40.294;-3.754;2023-01-29T07:33:08;94488.94;;;-1.26;66.64
19783;BME280;10051;40.294;-3.754;2023-01-29T07:35:38;94588.13;;;-0.73;66.75
19783;BME280;10051;40.294;-3.754;2023-01-29T07:38:06;94729.91;;;0.11;66.87
19783;BME280;10051;40.294;-3.754;2023-01-29T07:40:32;94735.50;;;0.21;67.07
19783;BME280;10051;40.294;-3.754;2023-01-29T07:43:01;94531.00;;;-1.32;67.64
19783;BME280;10051;40.294;-3.754;2023-01-29T07:45:28;94515.53;;;-1.25;67.23
19783;BME280;10051;40.294;-3.754;2023-01-29T07:47:55;94507.78;;;-1.25;66.90
19783;BME280;10051;40.294;-3.754;2023-01-29T07:50:25;94749.19;;;0.49;66.68
19783;BME280;10051;40.294;-3.754;2023-01-29T07:52:52;94742.63;;;0.59;66.39
19783;BME280;10051;40.294;-3.754;2023-01-29T07:55:21;94540.59;;;-0.79;65.84
19783;BME280;10051;40.294;-3.754;2023-01-29T07:57:56;94614.53;;;0.03;64.63
19783;BME280;10051;40.294;-3.754;2023-01-29T08:00:23;94701.75;;;0.88;63.44
19783;BME280;10051;40.294;-3.754;2023-01-29T08:02:49;94634.16;;;0.51;62.74
19783;BME280;10051;40.294;-3.754;2023-01-29T08:05:15;94653.56;;;0.74;62.63
19783;BME280;10051;40.294;-3.754;2023-01-29T08:07:41;94647.81;;;0.72;62.14
19783;BME280;10051;40.294;-3.754;2023-01-29T08:10:07;94665.84;;;0.92;61.94
19783;BME280;10051;40.294;-3.754;2023-01-29T08:12:34;94725.25;;;1.39;61.45
19783;BME280;10051;40.294;-3.754;2023-01-29T08:15:00;94778.16;;;1.70;61.21
19783;BME280;10051;40.294;-3.754;2023-01-29T08:17:26;94727.63;;;1.47;61.85
19783;BME280;10051;40.294;-3.754;2023-01-29T08:19:52;94624.78;;;0.50;62.31
19783;BME280;10051;40.294;-3.754;2023-01-29T08:22:18;94647.47;;;0.62;62.68
19783;BME280;10051;40.294;-3.754;2023-01-29T08:24:44;94662.53;;;0.78;62.69
19783;BME280;10051;40.294;-3.754;2023-01-29T08:27:10;94570.34;;;0.18;62.37
19783;BME280;10051;40.294;-3.754;2023-01-29T08:29:35;94573.47;;;0.34;62.12
19783;BME280;10051;40.294;-3.754;2023-01-29T08:32:01;94658.16;;;1.24;60.96
19783;BME280;10051;40.294;-3.754;2023-01-29T08:34:27;94564.97;;;0.72;60.57
19783;BME280;10051;40.294;-3.754;2023-01-29T08:36:52;94619.97;;;1.13;59.94
19783;BME280;10051;40.294;-3.754;2023-01-29T08:39:18;94638.22;;;1.25;60.03
19783;BME280;10051;40.294;-3.754;2023-01-29T08:41:44;94738.53;;;1.95;59.37
19783;BME280;10051;40.294;-3.754;2023-01-29T08:44:10;94639.97;;;1.31;59.40
19783;BME280;10051;40.294;-3.754;2023-01-29T08:46:35;94662.91;;;1.34;59.55
19783;BME280;10051;40.294;-3.754;2023-01-29T08:49:02;94781.69;;;2.15;59.04
19783;BME280;10051;40.294;-3.754;2023-01-29T08:51:27;94728.00;;;1.83;58.54
19783;BME280;10051;40.294;-3.754;2023-01-29T08:53:53;94739.47;;;1.69;59.24
19783;BME280;10051;40.294;-3.754;2023-01-29T08:56:18;94772.50;;;1.87;59.11
19783;BME280;10051;40.294;-3.754;2023-01-29T08:58:44;94802.78;;;1.93;59.69
19783;BME280;10051;40.294;-3.754;2023-01-29T09:01:12;94817.66;;;2.04;59.40
19783;BME280;10051;40.294;-3.754;2023-01-29T09:03:38;94814.75;;;1.94;59.46
19783;BME280;10051;40.294;-3.754;2023-01-29T09:06:10;94815.16;;;1.91;59.04
19783;BME280;10051;40.294;-3.754;2023-01-29T09:08:36;94829.72;;;1.92;59.38
19783;BME280;10051;40.294;-3.754;2023-01-29T09:11:02;94732.03;;;1.40;59.40
19783;BME280;10051;40.294;-3.754;2023-01-29T09:13:28;94850.84;;;2.34;58.44
19783;BME280;10051;40.294;-3.754;2023-01-29T09:15:53;94815.63;;;2.13;57.96
19783;BME280;10051;40.294;-3.754;2023-01-29T09:18:22;94856.94;;;2.47;57.28
19783;BME280;10051;40.294;-3.754;2023-01-29T09:20:48;94841.63;;;2.38;57.66
19783;BME280;10051;40.294;-3.754;2023-01-29T09:23:14;94859.44;;;2.60;57.05
19783;BME280;10051;40.294;-3.754;2023-01-29T09:25:41;94822.41;;;2.46;56.09
19783;BME280;10051;40.294;-3.754;2023-01-29T09:28:07;94859.41;;;2.92;55.47
19783;BME280;10051;40.294;-3.754;2023-01-29T09:30:33;94864.13;;;2.77;55.20
19783;BME280;10051;40.294;-3.754;2023-01-29T09:33:06;94794.91;;;2.38;55.73
19783;BME280;10051;40.294;-3.754;2023-01-29T09:35:32;94832.84;;;2.90;54.60
19783;BME280;10051;40.294;-3.754;2023-01-29T09:37:59;94858.72;;;3.04;54.08
19783;BME280;10051;40.294;-3.754;2023-01-29T09:46:38;94799.13;;;3.27;52.46
19783;BME280;10051;40.294;-3.754;2023-01-29T09:48:45;94861.88;;;3.50;53.02
19783;BME280;10051;40.294;-3.754;2023-01-29T09:51:26;94843.31;;;3.65;52.34
19783;BME280;10051;40.294;-3.754;2023-01-29T09:54:01;94871.91;;;4.02;51.05
19783;BME280;10051;40.294;-3.754;2023-01-29T09:56:30;94865.47;;;3.86;51.20
19783;BME280;10051;40.294;-3.754;2023-01-29T09:58:58;94825.38;;;3.75;51.60
19783;BME280;10051;40.294;-3.754;2023-01-29T10:20:51;94845.72;;;4.82;49.39
19783;BME280;10051;40.294;-3.754;2023-01-29T10:23:44;94850.50;;;4.97;49.49
19783;BME280;10051;40.294;-3.754;2023-01-29T10:26:12;94792.59;;;4.71;48.93
19783;BME280;10051;40.294;-3.754;2023-01-29T10:28:43;94860.59;;;5.17;49.30
19783;BME280;10051;40.294;-3.754;2023-01-29T10:31:21;94844.06;;;4.99;48.79
19783;BME280;10051;40.294;-3.754;2023-01-29T10:34:00;94856.41;;;4.92;49.19
19783;BME280;10051;40.294;-3.754;2023-01-29T10:36:44;94865.13;;;5.10;48.66
19783;BME280;10051;40.294;-3.754;2023-01-29T10:39:15;94867.63;;;5.28;48.83
19783;BME280;10051;40.294;-3.754;2023-01-29T10:41:53;94868.16;;;5.54;48.33
19783;BME280;10051;40.294;-3.754;2023-01-29T10:44:42;94824.53;;;5.49;47.52
19783;BME280;10051;40.294;-3.754;2023-01-29T10:56:11;94874.06;;;5.73;47.32
19783;BME280;10051;40.294;-3.754;2023-01-29T10:58:50;94827.38;;;5.48;47.22
19783;BME280;10051;40.294;-3.754;2023-01-29T11:01:17;94859.19;;;5.74;47.44
19783;BME280;10051;40.294;-3.754;2023-01-29T11:03:45;94764.16;;;5.05;47.02
19783;BME280;10051;40.294;-3.754;2023-01-29T11:11:51;94826.31;;;6.02;46.09
19783;BME280;10051;40.294;-3.754;2023-01-29T11:16:54;94851.00;;;6.23;45.91
19783;BME280;10051;40.294;-3.754;2023-01-29T11:19:38;94800.25;;;5.90;46.05
19783;BME280;10051;40.294;-3.754;2023-01-29T11:22:03;94758.03;;;5.64;46.52
19783;BME280;10051;40.294;-3.754;2023-01-29T11:24:29;94819.59;;;6.18;46.21
19783;BME280;10051;40.294;-3.754;2023-01-29T11:26:57;94795.69;;;6.26;45.98
19783;BME280;10051;40.294;-3.754;2023-01-29T11:32:04;94824.69;;;6.42;46.13
19783;BME280;10051;40.294;-3.754;2023-01-29T11:34:31;94813.38;;;6.70;45.79
19783;BME280;10051;40.294;-3.754;2023-01-29T11:37:01;94810.53;;;6.89;45.10
19783;BME280;10051;40.294;-3.754;2023-01-29T11:39:29;94764.84;;;6.40;45.53
19783;BME280;10051;40.294;-3.754;2023-01-29T11:42:00;94803.56;;;6.77;45.31
19783;BME280;10051;40.294;-3.754;2023-01-29T11:44:39;94800.84;;;7.06;45.24
19783;BME280;10051;40.294;-3.754;2023-01-29T11:47:14;94808.28;;;7.14;44.74
19783;BME280;10051;40.294;-3.754;2023-01-29T11:49:47;94798.00;;;7.30;44.31
19783;BME280;10051;40.294;-3.754;2023-01-29T11:52:15;94791.19;;;7.29;43.91
19783;BME280;10051;40.294;-3.754;2023-01-29T11:57:40;94786.66;;;7.41;43.34
19783;BME280;10051;40.294;-3.754;2023-01-29T12:00:19;94767.44;;;7.31;42.89
19783;BME280;10051;40.294;-3.754;2023-01-29T12:03:01;94784.72;;;7.54;42.98
19783;BME280;10051;40.294;-3.754;2023-01-29T12:05:31;94733.47;;;7.36;42.77
19783;BME280;10051;40.294;-3.754;2023-01-29T12:07:58;94771.97;;;7.85;42.52
19783;BME280;10051;40.294;-3.754;2023-01-29T12:10:37;94773.94;;;8.00;41.78
19783;BME280;10051;40.294;-3.754;2023-01-29T12:15:46;94763.19;;;7.96;42.08
19783;BME280;10051;40.294;-3.754;2023-01-29T12:18:30;94763.47;;;7.72;42.42
19783;BME280;10051;40.294;-3.754;2023-01-29T12:26:31;94738.25;;;8.16;41.73
19783;BME280;10051;40.294;-3.754;2023-01-29T12:31:54;94737.84;;;8.34;41.11
19783;BME280;10051;40.294;-3.754;2023-01-29T12:34:43;94737.72;;;8.19;41.48
19783;BME280;10051;40.294;-3.754;2023-01-29T12:37:34;94723.97;;;8.01;41.34
19783;BME280;10051;40.294;-3.754;2023-01-29T12:40:10;94717.22;;;8.11;41.58
19783;BME280;10051;40.294;-3.754;2023-01-29T12:42:40;94700.47;;;8.12;41.78
19783;BME280;10051;40.294;-3.754;2023-01-29T12:45:08;94573.19;;;7.46;41.32
19783;BME280;10051;40.294;-3.754;2023-01-29T12:52:46;94608.59;;;7.86;40.50
19783;BME280;10051;40.294;-3.754;2023-01-29T12:58:10;94634.59;;;7.98;40.50
19783;BME280;10051;40.294;-3.754;2023-01-29T13:00:43;94705.94;;;8.43;40.38
19783;BME280;10051;40.294;-3.754;2023-01-29T13:05:47;94694.03;;;8.57;39.63
19783;BME280;10051;40.294;-3.754;2023-01-29T13:08:29;94599.19;;;7.90;40.14
19783;BME280;10051;40.294;-3.754;2023-01-29T13:10:57;94688.16;;;8.45;40.60
19783;BME280;10051;40.294;-3.754;2023-01-29T13:14:03;94684.66;;;8.72;40.50
19783;BME280;10051;40.294;-3.754;2023-01-29T13:16:37;94654.22;;;8.60;40.17
19783;BME280;10051;40.294;-3.754;2023-01-29T13:19:13;94635.69;;;8.77;40.54
19783;BME280;10051;40.294;-3.754;2023-01-29T13:21:43;94678.28;;;9.05;39.66
19783;BME280;10051;40.294;-3.754;2023-01-29T13:24:21;94612.59;;;8.31;39.43
19783;BME280;10051;40.294;-3.754;2023-01-29T13:26:48;94623.78;;;8.22;39.96
19783;BME280;10051;40.294;-3.754;2023-01-29T13:29:23;94672.00;;;8.53;39.75
19783;BME280;10051;40.294;-3.754;2023-01-29T13:31:51;94668.88;;;8.61;40.71
19783;BME280;10051;40.294;-3.754;2023-01-29T13:36:56;94614.09;;;8.22;40.20
19783;BME280;10051;40.294;-3.754;2023-01-29T13:39:39;94627.03;;;8.34;40.51
19783;BME280;10051;40.294;-3.754;2023-01-29T13:42:17;94592.41;;;8.32;40.11
19783;BME280;10051;40.294;-3.754;2023-01-29T13:44:56;94670.38;;;8.95;40.07
19783;BME280;10051;40.294;-3.754;2023-01-29T13:47:28;94619.16;;;8.82;39.43
19783;BME280;10051;40.294;-3.754;2023-01-29T13:50:05;94666.25;;;9.15;39.17
19783;BME280;10051;40.294;-3.754;2023-01-29T13:52:41;94643.59;;;8.93;39.36
19783;BME280;10051;40.294;-3.754;2023-01-29T14:05:44;94619.72;;;8.84;39.16
19783;BME280;10051;40.294;-3.754;2023-01-29T14:13:47;94628.63;;;8.83;39.27
19783;BME280;10051;40.294;-3.754;2023-01-29T14:18:59;94652.59;;;9.07;39.07
19783;BME280;10051;40.294;-3.754;2023-01-29T14:21:29;94632.56;;;8.86;38.96
19783;BME280;10051;40.294;-3.754;2023-01-29T14:23:57;94652.63;;;9.13;38.86
19783;BME280;10051;40.294;-3.754;2023-01-29T14:26:41;94641.34;;;9.17;38.76
19783;BME280;10051;40.294;-3.754;2023-01-29T14:34:48;94655.97;;;8.98;38.92
19783;BME280;10051;40.294;-3.754;2023-01-29T14:40:24;94638.66;;;8.97;39.21
19783;BME280;10051;40.294;-3.754;2023-01-29T14:43:15;94650.22;;;9.06;38.61
19783;BME280;10051;40.294;-3.754;2023-01-29T14:45:47;94642.34;;;9.01;38.26
19783;BME280;10051;40.294;-3.754;2023-01-29T14:48:36;94649.16;;;9.07;39.23
19783;BME280;10051;40.294;-3.754;2023-01-29T14:51:18;94632.38;;;9.08;38.85
19783;BME280;10051;40.294;-3.754;2023-01-29T14:56:35;94509.81;;;8.19;38.67
19783;BME280;10051;40.294;-3.754;2023-01-29T14:59:11;94676.50;;;9.21;39.31
19783;BME280;10051;40.294;-3.754;2023-01-29T15:01:39;94667.06;;;9.20;38.69
19783;BME280;10051;40.294;-3.754;2023-01-29T15:04:19;94664.38;;;9.10;38.70
19783;BME280;10051;40.294;-3.754;2023-01-29T15:07:01;94668.56;;;9.01;39.01
19783;BME280;10051;40.294;-3.754;2023-01-29T15:09:49;94673.31;;;9.09;38.97
19783;BME280;10051;40.294;-3.754;2023-01-29T15:15:35;94650.09;;;8.80;39.29
19783;BME280;10051;40.294;-3.754;2023-01-29T15:18:16;94667.88;;;8.73;39.86
19783;BME280;10051;40.294;-3.754;2023-01-29T15:20:44;94642.75;;;8.39;40.22
19783;BME280;10051;40.294;-3.754;2023-01-29T15:23:27;94630.72;;;8.43;39.57
19783;BME280;10051;40.294;-3.754;2023-01-29T15:25:55;94658.19;;;8.68;39.80
19783;BME280;10051;40.294;-3.754;2023-01-29T15:28:21;94632.69;;;8.58;39.93
19783;BME280;10051;40.294;-3.754;2023-01-29T15:30:54;94664.56;;;8.83;40.29
19783;BME280;10051;40.294;-3.754;2023-01-29T15:33:21;94632.97;;;8.62;39.30
19783;BME280;10051;40.294;-3.754;2023-01-29T15:35:47;94645.59;;;8.70;39.75
19783;BME280;10051;40.294;-3.754;2023-01-29T15:38:17;94669.22;;;8.75;39.85
19783;BME280;10051;40.294;-3.754;2023-01-29T15:40:58;94667.81;;;8.57;39.68
19783;BME280;10051;40.294;-3.754;2023-01-29T15:43:29;94615.13;;;8.21;40.15